createdAt,value
2018-11-07T00:02:25.680Z,32.77
2018-11-07T00:05:29.284Z,31.10
2018-11-07T00:08:32.810Z,32.10
2018-11-07T00:11:36.391Z,34.03
2018-11-07T00:14:41.025Z,29.70
2018-11-07T00:17:44.630Z,31.23
2018-11-07T00:20:48.183Z,31.33
2018-11-07T00:23:51.883Z,31.13
2018-11-07T00:26:55.437Z,31.20
2018-11-07T00:29:59.200Z,34.53
2018-11-07T00:33:02.715Z,29.73
2018-11-07T00:36:06.811Z,39.07
2018-11-07T00:39:10.883Z,29.33
2018-11-07T00:42:14.367Z,32.53
2018-11-07T00:45:17.952Z,26.93
2018-11-07T00:48:21.526Z,29.03
2018-11-07T00:51:25.015Z,27.90
2018-11-07T00:54:28.562Z,28.27
2018-11-07T00:57:32.147Z,29.77
2018-11-07T01:00:35.630Z,26.50
2018-11-07T01:03:39.255Z,27.23
2018-11-07T01:06:42.707Z,27.03
2018-11-07T01:09:46.287Z,25.30
2018-11-07T01:12:49.952Z,26.23
2018-11-07T01:15:53.467Z,25.37
2018-11-07T01:18:56.961Z,23.07
2018-11-07T01:22:00.503Z,24.10
2018-11-07T01:25:04.243Z,24.63
2018-11-07T01:28:07.768Z,23.67
2018-11-07T01:31:11.244Z,24.03
2018-11-07T01:34:15.112Z,23.10
2018-11-07T01:37:18.633Z,20.90
2018-11-07T01:40:22.219Z,22.53
2018-11-07T01:43:25.724Z,22.43
2018-11-07T01:46:29.207Z,21.83
2018-11-07T01:49:32.744Z,22.93
2018-11-07T01:52:36.283Z,23.10
2018-11-07T01:55:39.805Z,22.73
2018-11-07T01:58:43.251Z,22.23
2018-11-07T02:01:46.755Z,21.77
2018-11-07T02:04:50.280Z,22.23
2018-11-07T02:07:53.874Z,21.27
2018-11-07T02:10:57.405Z,23.83
2018-11-07T02:14:00.975Z,21.67
2018-11-07T02:17:04.562Z,19.13
2018-11-07T02:20:09.440Z,19.13
2018-11-07T02:23:13.025Z,20.53
2018-11-07T02:26:16.606Z,20.17
2018-11-07T02:29:21.165Z,19.80
2018-11-07T02:32:24.661Z,20.63
2018-11-07T02:35:28.170Z,19.17
2018-11-07T02:38:31.681Z,19.77
2018-11-07T02:41:35.243Z,17.57
2018-11-07T02:44:38.707Z,19.30
2018-11-07T02:47:42.315Z,18.23
2018-11-07T02:50:45.816Z,18.50
2018-11-07T02:53:49.356Z,17.90
2018-11-07T02:56:52.893Z,18.77
2018-11-07T02:59:56.437Z,20.37
2018-11-07T03:02:59.949Z,17.23
2018-11-07T03:06:03.513Z,18.73
2018-11-07T03:09:09.351Z,18.10
2018-11-07T03:12:12.770Z,19.73
2018-11-07T03:15:16.315Z,18.13
2018-11-07T03:18:19.818Z,19.17
2018-11-07T03:21:23.300Z,20.63
2018-11-07T03:24:26.803Z,18.40
2018-11-07T03:27:30.310Z,16.33
2018-11-07T03:30:33.772Z,17.73
2018-11-07T03:33:37.350Z,18.23
2018-11-07T03:36:40.849Z,17.73
2018-11-07T03:39:44.489Z,18.90
2018-11-07T03:42:48.047Z,18.57
2018-11-07T03:45:56.807Z,17.73
2018-11-07T03:49:00.259Z,18.13
2018-11-07T03:52:03.715Z,19.87
2018-11-07T03:55:07.465Z,15.63
2018-11-07T03:58:10.974Z,17.13
2018-11-07T04:01:14.479Z,14.77
2018-11-07T04:04:18.004Z,15.30
2018-11-07T04:07:21.448Z,17.17
2018-11-07T04:10:24.985Z,17.87
2018-11-07T04:13:28.507Z,14.50
2018-11-07T04:16:32.010Z,16.20
2018-11-07T04:19:35.513Z,14.73
2018-11-07T04:22:39.358Z,13.57
2018-11-07T04:25:42.729Z,14.27
2018-11-07T04:28:46.195Z,15.53
2018-11-07T04:31:49.731Z,12.83
2018-11-07T04:34:53.744Z,14.47
2018-11-07T04:37:57.170Z,12.37
2018-11-07T04:41:00.609Z,11.97
2018-11-07T04:44:04.323Z,14.17
2018-11-07T04:47:08.092Z,11.13
2018-11-07T04:50:12.547Z,13.23
2018-11-07T04:53:16.099Z,13.33
2018-11-07T04:56:19.504Z,13.43
2018-11-07T04:59:23.121Z,13.33
2018-11-07T05:02:26.757Z,12.47
2018-11-07T05:05:30.327Z,10.70
2018-11-07T05:08:33.993Z,11.60
2018-11-07T05:11:37.443Z,11.87
2018-11-07T05:14:40.998Z,10.87
2018-11-07T05:17:44.578Z,10.57
2018-11-07T05:20:48.225Z,9.97
2018-11-07T05:23:53.051Z,10.20
2018-11-07T05:26:56.678Z,11.30
2018-11-07T05:30:00.248Z,10.63
2018-11-07T05:33:03.868Z,11.17
2018-11-07T05:36:07.950Z,10.20
2018-11-07T05:39:11.493Z,10.37
2018-11-07T05:42:15.127Z,10.90
2018-11-07T05:45:18.799Z,10.97
2018-11-07T05:48:22.268Z,10.50
2018-11-07T05:51:25.862Z,10.17
2018-11-07T05:54:29.369Z,9.90
2018-11-07T05:57:32.815Z,9.00
2018-11-07T06:00:37.360Z,9.30
2018-11-07T06:03:40.931Z,10.10
2018-11-07T06:06:44.513Z,8.67
2018-11-07T06:09:48.013Z,11.00
2018-11-07T06:12:51.478Z,10.27
2018-11-07T06:15:55.101Z,9.67
2018-11-07T06:18:59.611Z,11.40
2018-11-07T06:22:18.474Z,9.43
2018-11-07T06:25:23.057Z,26.00
2018-11-07T06:28:26.623Z,8.50
2018-11-07T06:31:30.152Z,11.97
2018-11-07T06:34:33.612Z,13.33
2018-11-07T06:37:37.135Z,9.40
2018-11-07T06:40:40.640Z,11.07
2018-11-07T06:43:44.145Z,9.87
2018-11-07T06:46:47.628Z,10.80
2018-11-07T06:49:51.095Z,7.93
2018-11-07T06:52:54.947Z,10.03
2018-11-07T06:55:58.518Z,11.53
2018-11-07T06:59:02.124Z,12.83
2018-11-07T07:02:05.707Z,10.77
2018-11-07T07:05:09.222Z,12.40
2018-11-07T07:08:12.793Z,10.53
2018-11-07T07:11:16.219Z,11.37
2018-11-07T07:14:19.784Z,10.03
2018-11-07T07:17:23.417Z,11.83
2018-11-07T07:20:27.001Z,9.93
2018-11-07T07:23:30.504Z,10.30
2018-11-07T07:26:34.142Z,9.63
2018-11-07T07:29:37.716Z,11.13
2018-11-07T07:32:42.100Z,9.73
2018-11-07T07:35:46.680Z,10.57
2018-11-07T07:38:50.295Z,13.00
2018-11-07T07:41:53.689Z,11.70
2018-11-07T07:44:57.052Z,13.97
2018-11-07T07:48:00.501Z,12.80
2018-11-07T07:51:04.006Z,13.50
2018-11-07T07:54:07.571Z,12.37
2018-11-07T07:57:11.010Z,13.23
2018-11-07T08:00:16.699Z,13.33
2018-11-07T08:03:20.151Z,11.93
2018-11-07T08:06:23.861Z,13.63
2018-11-07T08:09:27.343Z,11.10
2018-11-07T08:12:30.740Z,12.03
2018-11-07T08:15:34.223Z,12.23
2018-11-07T08:18:37.738Z,11.63
2018-11-07T08:21:41.280Z,11.07
2018-11-07T08:24:44.742Z,12.50
2018-11-07T08:27:48.207Z,12.37
2018-11-07T08:30:51.986Z,11.93
2018-11-07T08:33:55.368Z,13.20
2018-11-07T08:36:58.813Z,11.93
2018-11-07T08:40:02.413Z,13.03
2018-11-07T08:43:05.942Z,12.07
2018-11-07T08:46:09.467Z,14.03
2018-11-07T08:49:12.953Z,12.33
2018-11-07T08:52:16.456Z,13.23
2018-11-07T08:55:21.251Z,11.70
2018-11-07T08:58:24.698Z,11.37
2018-11-07T09:01:28.243Z,12.30
2018-11-07T09:04:31.678Z,13.07
2018-11-07T09:07:35.525Z,13.07
2018-11-07T09:10:38.991Z,11.93
2018-11-07T09:13:42.521Z,11.47
2018-11-07T09:16:45.971Z,13.23
2018-11-07T09:19:49.484Z,13.47
2018-11-07T09:22:53.022Z,12.43
2018-11-07T09:25:56.620Z,10.80
2018-11-07T09:29:00.135Z,12.67
2018-11-07T09:32:03.490Z,13.07
2018-11-07T09:35:08.013Z,10.67
2018-11-07T09:38:11.426Z,12.47
2018-11-07T09:41:14.969Z,12.33
2018-11-07T09:44:18.487Z,10.57
2018-11-07T09:47:22.043Z,12.53
2018-11-07T09:50:25.477Z,9.97
2018-11-07T09:53:28.935Z,8.67
2018-11-07T09:56:32.300Z,9.70
2018-11-07T09:59:35.875Z,10.50
2018-11-07T10:02:39.630Z,11.57
2018-11-07T10:05:43.079Z,9.77
2018-11-07T10:08:46.672Z,10.90
2018-11-07T10:11:50.211Z,9.77
2018-11-07T10:14:54.806Z,10.40
2018-11-07T10:17:58.284Z,10.77
2018-11-07T10:21:01.683Z,11.33
2018-11-07T10:24:05.429Z,10.60
2018-11-07T10:27:09.165Z,8.90
2018-11-07T10:30:14.612Z,9.50
2018-11-07T10:33:17.749Z,11.03
2018-11-07T10:36:21.442Z,9.23
2018-11-07T10:39:24.856Z,11.10
2018-11-07T10:42:28.335Z,11.17
2018-11-07T10:45:31.790Z,9.43
2018-11-07T10:48:35.389Z,11.53
2018-11-07T10:51:39.006Z,10.53
2018-11-07T10:54:42.614Z,9.83
2018-11-07T10:57:46.389Z,10.10
2018-11-07T11:00:55.106Z,12.37
2018-11-07T11:03:58.524Z,9.67
2018-11-07T11:07:02.045Z,11.83
2018-11-07T11:10:05.768Z,9.13
2018-11-07T11:13:10.419Z,11.07
2018-11-07T11:16:13.909Z,11.33
2018-11-07T11:19:17.495Z,12.50
2018-11-07T11:22:21.108Z,9.53
2018-11-07T11:25:24.714Z,9.00
2018-11-07T11:28:28.281Z,10.83
2018-11-07T11:31:31.795Z,10.03
2018-11-07T11:34:35.523Z,9.93
2018-11-07T11:37:39.158Z,9.40
2018-11-07T11:40:42.673Z,10.10
2018-11-07T11:43:46.213Z,8.33
2018-11-07T11:46:50.020Z,8.67
2018-11-07T11:49:53.561Z,10.23
2018-11-07T11:52:57.091Z,11.33
2018-11-07T11:56:00.610Z,10.17
2018-11-07T11:59:04.583Z,8.43
2018-11-07T12:02:08.082Z,8.80
2018-11-07T12:05:12.854Z,7.30
2018-11-07T12:08:16.467Z,7.17
2018-11-07T12:11:19.993Z,7.60
2018-11-07T12:14:23.559Z,7.27
2018-11-07T12:17:27.092Z,7.83
2018-11-07T12:20:30.716Z,7.83
2018-11-07T12:23:34.274Z,8.00
2018-11-07T12:26:37.818Z,6.43
2018-11-07T12:29:41.449Z,7.47
2018-11-07T12:32:46.357Z,6.23
2018-11-07T12:35:50.161Z,12.43
2018-11-07T12:38:53.573Z,8.83
2018-11-07T12:41:57.069Z,6.10
2018-11-07T12:45:01.153Z,5.40
2018-11-07T12:48:04.903Z,6.27
2018-11-07T12:51:08.506Z,8.50
2018-11-07T12:54:11.955Z,7.37
2018-11-07T12:57:15.499Z,7.00
2018-11-07T13:00:21.434Z,8.00
2018-11-07T13:03:24.821Z,9.37
2018-11-07T13:06:28.329Z,7.10
2018-11-07T13:09:31.839Z,7.10
2018-11-07T13:12:35.308Z,6.53
2018-11-07T13:15:38.817Z,6.80
2018-11-07T13:18:42.521Z,6.97
2018-11-07T13:21:46.043Z,5.60
2018-11-07T13:24:49.525Z,5.30
2018-11-07T13:27:53.115Z,7.47
2018-11-07T13:30:56.655Z,5.60
2018-11-07T13:34:00.196Z,9.67
2018-11-07T13:37:03.754Z,7.00
2018-11-07T13:40:10.141Z,5.97
2018-11-07T13:43:13.696Z,4.57
2018-11-07T13:46:17.309Z,4.70
2018-11-07T13:49:20.833Z,8.33
2018-11-07T13:52:24.356Z,6.47
2018-11-07T13:55:27.927Z,5.83
2018-11-07T13:58:31.492Z,4.93
2018-11-07T14:01:34.988Z,4.17
2018-11-07T14:04:38.446Z,4.37
2018-11-07T14:07:42.022Z,5.63
2018-11-07T14:10:45.540Z,6.30
2018-11-07T14:13:49.133Z,6.53
2018-11-07T14:16:52.736Z,4.90
2018-11-07T14:19:56.293Z,6.03
2018-11-07T14:22:59.786Z,5.17
2018-11-07T14:26:03.514Z,4.30
2018-11-07T14:29:07.093Z,4.73
2018-11-07T14:32:10.641Z,4.17
2018-11-07T14:35:14.288Z,4.23
2018-11-07T14:38:17.972Z,5.60
2018-11-07T14:41:21.484Z,5.93
2018-11-07T14:44:25.111Z,8.23
2018-11-07T14:47:28.704Z,7.07
2018-11-07T14:50:32.136Z,8.63
2018-11-07T14:53:35.720Z,6.57
2018-11-07T14:56:39.113Z,7.30
2018-11-07T14:59:42.763Z,8.20
2018-11-07T15:02:46.625Z,6.67
2018-11-07T15:05:50.122Z,7.60
2018-11-07T15:08:53.619Z,7.17
2018-11-07T15:11:57.107Z,9.10
2018-11-07T15:15:00.625Z,6.87
2018-11-07T15:18:04.087Z,6.17
2018-11-07T15:21:07.638Z,7.17
2018-11-07T15:24:11.190Z,7.57
2018-11-07T15:27:14.741Z,8.20
2018-11-07T15:30:18.619Z,7.00
2018-11-07T15:33:23.059Z,7.90
2018-11-07T15:36:26.567Z,8.77
2018-11-07T15:39:29.976Z,7.77
2018-11-07T15:42:33.555Z,8.17
2018-11-07T15:45:37.114Z,12.70
2018-11-07T15:48:40.692Z,10.47
2018-11-07T15:51:44.298Z,8.40
2018-11-07T15:54:47.760Z,11.23
2018-11-07T15:57:51.291Z,11.80
2018-11-07T16:00:54.784Z,7.07
2018-11-07T16:03:59.557Z,13.93
2018-11-07T16:07:03.296Z,10.33
2018-11-07T16:10:08.149Z,10.03
2018-11-07T16:13:11.743Z,9.77
2018-11-07T16:16:15.156Z,13.30
2018-11-07T16:19:18.773Z,13.13
2018-11-07T16:22:22.240Z,14.53
2018-11-07T16:25:25.757Z,15.17
2018-11-07T16:28:29.405Z,15.47
2018-11-07T16:31:32.996Z,18.70
2018-11-07T16:34:36.598Z,15.23
2018-11-07T16:37:40.297Z,13.97
2018-11-07T16:40:43.834Z,11.97
2018-11-07T16:43:48.236Z,16.03
2018-11-07T16:46:51.725Z,17.83
2018-11-07T16:49:55.150Z,12.33
2018-11-07T16:52:58.531Z,12.77
2018-11-07T16:56:01.997Z,9.20
2018-11-07T16:59:06.485Z,11.23
2018-11-07T17:02:10.094Z,11.63
2018-11-07T17:05:13.968Z,9.23
2018-11-07T17:08:17.479Z,11.63
2018-11-07T17:11:21.089Z,8.20
2018-11-07T17:14:24.479Z,11.20
2018-11-07T17:17:27.921Z,11.23
2018-11-07T17:20:31.288Z,9.93
2018-11-07T17:23:35.034Z,9.50
2018-11-07T17:26:38.495Z,10.27
2018-11-07T17:29:41.932Z,12.63
2018-11-07T17:32:45.459Z,13.77
2018-11-07T17:35:48.955Z,12.17
2018-11-07T17:38:52.469Z,10.20
2018-11-07T17:41:55.915Z,13.83
2018-11-07T17:44:59.394Z,17.07
2018-11-07T17:48:03.993Z,14.23
2018-11-07T17:51:07.398Z,18.10
2018-11-07T17:54:10.989Z,13.40
2018-11-07T17:57:14.508Z,11.37
2018-11-07T18:00:22.358Z,12.60
2018-11-07T18:03:25.944Z,13.60
2018-11-07T18:06:30.983Z,13.77
2018-11-07T18:09:34.629Z,12.10
2018-11-07T18:12:38.500Z,14.10
2018-11-07T18:15:42.141Z,11.57
2018-11-07T18:18:45.710Z,15.63
2018-11-07T18:21:49.279Z,12.37
2018-11-07T18:24:52.934Z,14.87
2018-11-07T18:27:56.651Z,15.23
2018-11-07T18:31:00.189Z,18.27
2018-11-07T18:34:05.957Z,15.77
2018-11-07T18:37:11.618Z,15.47
2018-11-07T18:40:16.543Z,14.77
2018-11-07T18:43:20.134Z,17.10
2018-11-07T18:46:23.806Z,13.73
2018-11-07T18:49:27.495Z,19.97
2018-11-07T18:52:30.980Z,14.53
2018-11-07T18:55:34.564Z,15.50
2018-11-07T18:58:38.344Z,16.33
2018-11-07T19:01:42.784Z,18.93
2018-11-07T19:04:46.251Z,16.00
2018-11-07T19:07:49.753Z,15.47
2018-11-07T19:10:53.242Z,17.07
2018-11-07T19:13:56.731Z,21.23
2018-11-07T19:17:00.414Z,18.57
2018-11-07T19:20:03.988Z,23.27
2018-11-07T19:23:07.469Z,23.57
2018-11-07T19:26:11.109Z,24.27
2018-11-07T19:29:14.575Z,22.48
2018-11-07T19:32:19.117Z,24.02
2018-11-07T19:35:23.029Z,22.87
2018-11-07T19:38:26.549Z,25.17
2018-11-07T19:41:30.084Z,23.60
2018-11-07T19:44:33.656Z,19.70
2018-11-07T19:47:37.815Z,25.10
2018-11-07T19:50:41.347Z,20.20
2018-11-07T19:53:44.830Z,24.63
2018-11-07T19:56:48.346Z,17.20
2018-11-07T19:59:51.928Z,19.40
2018-11-07T20:02:55.713Z,21.20
2018-11-07T20:05:59.206Z,19.17
2018-11-07T20:09:02.731Z,20.50
2018-11-07T20:12:06.720Z,24.47
2018-11-07T20:15:11.747Z,22.40
2018-11-07T20:18:15.316Z,19.33
2018-11-07T20:21:18.933Z,20.73
2018-11-07T20:24:22.426Z,18.43
2018-11-07T20:27:25.973Z,18.63
2018-11-07T20:30:30.429Z,18.67
2018-11-07T20:33:33.885Z,18.97
2018-11-07T20:36:37.394Z,21.73
2018-11-07T20:39:41.014Z,18.30
2018-11-07T20:42:45.540Z,26.43
2018-11-07T20:45:49.031Z,21.50
2018-11-07T20:48:52.978Z,23.80
2018-11-07T20:51:56.418Z,24.63
2018-11-07T20:54:59.926Z,20.67
2018-11-07T20:58:03.445Z,29.27
2018-11-07T21:01:06.958Z,25.87
2018-11-07T21:04:10.459Z,23.07
2018-11-07T21:07:13.965Z,29.27
2018-11-07T21:10:18.862Z,28.90
2018-11-07T21:13:22.360Z,24.07
2018-11-07T21:16:25.918Z,21.87
2018-11-07T21:19:29.525Z,25.30
2018-11-07T21:22:33.027Z,23.73
2018-11-07T21:25:36.662Z,20.80
2018-11-07T21:28:40.109Z,22.07
2018-11-07T21:31:43.617Z,17.13
2018-11-07T21:34:47.132Z,19.27
2018-11-07T21:37:50.584Z,16.30
2018-11-07T21:40:54.094Z,15.00
2018-11-07T21:43:57.583Z,16.10
2018-11-07T21:47:00.966Z,18.03
2018-11-07T21:50:05.251Z,15.67
2018-11-07T21:53:08.676Z,16.77
2018-11-07T21:56:12.158Z,15.37
2018-11-07T21:59:16.721Z,12.93
2018-11-07T22:02:20.135Z,14.13
2018-11-07T22:05:23.666Z,14.87
2018-11-07T22:08:27.109Z,15.30
2018-11-07T22:11:30.683Z,15.53
2018-11-07T22:14:34.133Z,14.53
2018-11-07T22:17:37.854Z,12.47
2018-11-07T22:20:41.256Z,10.87
2018-11-07T22:23:44.653Z,14.03
2018-11-07T22:26:48.095Z,12.17
2018-11-07T22:29:51.768Z,12.60
2018-11-07T22:32:55.202Z,11.87
2018-11-07T22:35:58.635Z,10.90
2018-11-07T22:39:02.055Z,12.37
2018-11-07T22:42:05.809Z,12.43
2018-11-07T22:45:09.891Z,13.03
2018-11-07T22:48:13.291Z,13.00
2018-11-07T22:51:16.846Z,11.10
2018-11-07T22:54:20.383Z,11.43
2018-11-07T22:57:23.821Z,11.93
2018-11-07T23:00:32.560Z,13.40
2018-11-07T23:03:36.147Z,12.10
2018-11-07T23:06:40.235Z,11.90
2018-11-07T23:09:43.773Z,11.07
2018-11-07T23:12:47.683Z,13.80
2018-11-07T23:15:52.173Z,11.60
2018-11-07T23:18:55.813Z,11.77
2018-11-07T23:21:59.264Z,10.70
2018-11-07T23:25:02.943Z,12.67
2018-11-07T23:28:06.624Z,12.37
2018-11-07T23:31:10.238Z,10.93
2018-11-07T23:34:13.707Z,13.37
2018-11-07T23:37:17.252Z,13.90
2018-11-07T23:40:20.818Z,10.53
2018-11-07T23:43:24.347Z,10.77
2018-11-07T23:46:27.860Z,11.60
2018-11-07T23:49:31.322Z,8.00
2018-11-07T23:52:40.184Z,8.87
2018-11-07T23:55:44.566Z,9.07
2018-11-07T23:58:49.392Z,8.80
